sensor_id;sensor_type;location;lat;lon;timestamp;temperature;humidity
49441;DHT22;35317;51.978;6.296;2023-01-19T00:04:19;2.70;99.90
49441;DHT22;35317;51.978;6.296;2023-01-19T00:09:19;2.70;99.90
49441;DHT22;35317;51.978;6.296;2023-01-19T00:14:22;2.70;99.90
49441;DHT22;35317;51.978;6.296;2023-01-19T00:19:23;2.70;99.90
49441;DHT22;35317;51.978;6.296;2023-01-19T00:24:24;2.70;99.90
49441;DHT22;35317;51.978;6.296;2023-01-19T00:29:25;2.80;99.90
49441;DHT22;35317;51.978;6.296;2023-01-19T00:34:27;2.80;99.90
49441;DHT22;35317;51.978;6.296;2023-01-19T00:39:36;2.80;99.90
49441;DHT22;35317;51.978;6.296;2023-01-19T00:44:37;2.80;99.90
49441;DHT22;35317;51.978;6.296;2023-01-19T00:49:37;2.80;99.90
49441;DHT22;35317;51.978;6.296;2023-01-19T00:54:38;2.80;99.90
49441;DHT22;35317;51.978;6.296;2023-01-19T00:59:39;2.90;99.90
49441;DHT22;35317;51.978;6.296;2023-01-19T01:04:40;2.90;99.90
49441;DHT22;35317;51.978;6.296;2023-01-19T01:09:41;3.00;99.90
49441;DHT22;35317;51.978;6.296;2023-01-19T01:14:41;3.00;99.90
49441;DHT22;35317;51.978;6.296;2023-01-19T01:19:42;3.10;99.90
49441;DHT22;35317;51.978;6.296;2023-01-19T01:24:43;3.10;99.90
49441;DHT22;35317;51.978;6.296;2023-01-19T01:29:44;3.10;99.90
49441;DHT22;35317;51.978;6.296;2023-01-19T01:34:47;3.20;99.90
49441;DHT22;35317;51.978;6.296;2023-01-19T01:39:48;3.20;99.90
49441;DHT22;35317;51.978;6.296;2023-01-19T01:44:52;3.20;99.90
49441;DHT22;35317;51.978;6.296;2023-01-19T01:50:27;3.20;99.90
49441;DHT22;35317;51.978;6.296;2023-01-19T01:55:29;3.30;99.90
49441;DHT22;35317;51.978;6.296;2023-01-19T02:00:31;3.30;99.90
49441;DHT22;35317;51.978;6.296;2023-01-19T02:05:51;3.20;99.90
49441;DHT22;35317;51.978;6.296;2023-01-19T02:10:54;3.30;99.90
49441;DHT22;35317;51.978;6.296;2023-01-19T02:16:14;3.30;99.90
49441;DHT22;35317;51.978;6.296;2023-01-19T02:21:33;3.30;99.90
49441;DHT22;35317;51.978;6.296;2023-01-19T02:26:39;3.40;99.90
49441;DHT22;35317;51.978;6.296;2023-01-19T02:31:42;3.40;99.90
49441;DHT22;35317;51.978;6.296;2023-01-19T02:36:49;3.40;99.90
49441;DHT22;35317;51.978;6.296;2023-01-19T02:41:54;3.30;99.90
49441;DHT22;35317;51.978;6.296;2023-01-19T02:46:58;3.20;99.90
49441;DHT22;35317;51.978;6.296;2023-01-19T02:51:59;3.10;99.90
49441;DHT22;35317;51.978;6.296;2023-01-19T02:57:25;3.00;99.90
49441;DHT22;35317;51.978;6.296;2023-01-19T03:03:07;2.90;99.90
49441;DHT22;35317;51.978;6.296;2023-01-19T03:13:56;2.70;99.90
49441;DHT22;35317;51.978;6.296;2023-01-19T03:19:18;2.50;99.90
49441;DHT22;35317;51.978;6.296;2023-01-19T03:24:22;2.40;99.90
49441;DHT22;35317;51.978;6.296;2023-01-19T03:29:27;2.30;99.90
49441;DHT22;35317;51.978;6.296;2023-01-19T03:34:31;2.20;99.90
49441;DHT22;35317;51.978;6.296;2023-01-19T03:39:33;2.20;99.90
49441;DHT22;35317;51.978;6.296;2023-01-19T03:44:36;2.20;99.90
49441;DHT22;35317;51.978;6.296;2023-01-19T03:49:38;2.20;99.90
49441;DHT22;35317;51.978;6.296;2023-01-19T03:54:41;2.30;99.90
49441;DHT22;35317;51.978;6.296;2023-01-19T03:59:41;2.40;99.90
49441;DHT22;35317;51.978;6.296;2023-01-19T04:04:42;2.40;99.90
49441;DHT22;35317;51.978;6.296;2023-01-19T04:09:43;2.40;99.90
49441;DHT22;35317;51.978;6.296;2023-01-19T04:14:44;2.40;99.90
49441;DHT22;35317;51.978;6.296;2023-01-19T04:19:44;2.30;99.90
49441;DHT22;35317;51.978;6.296;2023-01-19T04:24:45;2.20;99.90
49441;DHT22;35317;51.978;6.296;2023-01-19T04:29:46;2.20;99.90
49441;DHT22;35317;51.978;6.296;2023-01-19T04:34:47;2.20;99.90
49441;DHT22;35317;51.978;6.296;2023-01-19T04:39:47;2.20;99.90
49441;DHT22;35317;51.978;6.296;2023-01-19T04:44:48;2.20;99.90
49441;DHT22;35317;51.978;6.296;2023-01-19T04:49:49;2.20;99.90
49441;DHT22;35317;51.978;6.296;2023-01-19T04:54:49;2.20;99.90
49441;DHT22;35317;51.978;6.296;2023-01-19T04:59:50;2.30;99.90
49441;DHT22;35317;51.978;6.296;2023-01-19T05:04:51;2.30;99.90
49441;DHT22;35317;51.978;6.296;2023-01-19T05:09:52;2.30;99.90
49441;DHT22;35317;51.978;6.296;2023-01-19T05:14:53;2.30;99.90
49441;DHT22;35317;51.978;6.296;2023-01-19T05:19:54;2.30;99.90
49441;DHT22;35317;51.978;6.296;2023-01-19T05:24:54;2.30;99.90
49441;DHT22;35317;51.978;6.296;2023-01-19T05:29:55;2.30;99.90
49441;DHT22;35317;51.978;6.296;2023-01-19T05:34:56;2.30;99.90
49441;DHT22;35317;51.978;6.296;2023-01-19T05:39:57;2.30;99.90
49441;DHT22;35317;51.978;6.296;2023-01-19T05:44:57;2.30;99.90
49441;DHT22;35317;51.978;6.296;2023-01-19T05:49:58;2.30;99.90
49441;DHT22;35317;51.978;6.296;2023-01-19T05:54:59;2.40;99.90
49441;DHT22;35317;51.978;6.296;2023-01-19T06:00:00;2.40;99.90
49441;DHT22;35317;51.978;6.296;2023-01-19T06:05:01;2.40;99.90
49441;DHT22;35317;51.978;6.296;2023-01-19T06:10:02;2.40;99.90
49441;DHT22;35317;51.978;6.296;2023-01-19T06:15:03;2.50;99.90
49441;DHT22;35317;51.978;6.296;2023-01-19T06:20:04;2.40;99.90
49441;DHT22;35317;51.978;6.296;2023-01-19T06:25:06;2.50;99.90
49441;DHT22;35317;51.978;6.296;2023-01-19T06:30:07;2.50;99.90
49441;DHT22;35317;51.978;6.296;2023-01-19T06:35:08;2.50;99.90
49441;DHT22;35317;51.978;6.296;2023-01-19T06:40:09;2.50;99.90
49441;DHT22;35317;51.978;6.296;2023-01-19T06:45:11;2.50;99.90
49441;DHT22;35317;51.978;6.296;2023-01-19T06:50:12;2.50;99.90
49441;DHT22;35317;51.978;6.296;2023-01-19T06:55:12;2.50;99.90
49441;DHT22;35317;51.978;6.296;2023-01-19T07:00:14;2.50;99.90
49441;DHT22;35317;51.978;6.296;2023-01-19T07:05:15;2.50;99.90
49441;DHT22;35317;51.978;6.296;2023-01-19T07:10:16;2.50;99.90
49441;DHT22;35317;51.978;6.296;2023-01-19T07:15:18;2.60;99.90
49441;DHT22;35317;51.978;6.296;2023-01-19T07:20:19;2.60;99.90
49441;DHT22;35317;51.978;6.296;2023-01-19T07:25:20;2.60;99.90
49441;DHT22;35317;51.978;6.296;2023-01-19T07:30:21;2.70;99.90
49441;DHT22;35317;51.978;6.296;2023-01-19T07:35:22;2.70;99.90
49441;DHT22;35317;51.978;6.296;2023-01-19T07:40:24;2.70;99.90
49441;DHT22;35317;51.978;6.296;2023-01-19T07:45:24;2.70;99.90
49441;DHT22;35317;51.978;6.296;2023-01-19T07:50:26;2.70;99.90
49441;DHT22;35317;51.978;6.296;2023-01-19T07:55:28;2.70;99.90
49441;DHT22;35317;51.978;6.296;2023-01-19T08:00:29;2.70;99.90
49441;DHT22;35317;51.978;6.296;2023-01-19T08:05:31;2.70;99.90
49441;DHT22;35317;51.978;6.296;2023-01-19T08:10:32;2.80;99.90
49441;DHT22;35317;51.978;6.296;2023-01-19T08:15:34;2.90;99.90
49441;DHT22;35317;51.978;6.296;2023-01-19T08:20:35;2.90;99.90
49441;DHT22;35317;51.978;6.296;2023-01-19T08:25:40;2.90;99.90
49441;DHT22;35317;51.978;6.296;2023-01-19T08:30:43;3.00;99.90
49441;DHT22;35317;51.978;6.296;2023-01-19T08:35:48;3.00;99.90
49441;DHT22;35317;51.978;6.296;2023-01-19T08:40:49;3.10;99.90
49441;DHT22;35317;51.978;6.296;2023-01-19T08:45:51;3.10;99.90
49441;DHT22;35317;51.978;6.296;2023-01-19T08:50:52;3.10;99.90
49441;DHT22;35317;51.978;6.296;2023-01-19T08:55:54;3.20;99.90
49441;DHT22;35317;51.978;6.296;2023-01-19T09:01:00;3.20;99.90
49441;DHT22;35317;51.978;6.296;2023-01-19T09:06:04;3.20;99.90
49441;DHT22;35317;51.978;6.296;2023-01-19T09:11:09;3.30;99.90
49441;DHT22;35317;51.978;6.296;2023-01-19T09:16:10;3.30;99.90
49441;DHT22;35317;51.978;6.296;2023-01-19T09:21:12;3.30;99.90
49441;DHT22;35317;51.978;6.296;2023-01-19T09:26:14;3.30;99.90
49441;DHT22;35317;51.978;6.296;2023-01-19T09:31:15;3.30;99.90
49441;DHT22;35317;51.978;6.296;2023-01-19T09:36:16;3.30;99.90
49441;DHT22;35317;51.978;6.296;2023-01-19T09:41:21;3.20;99.90
49441;DHT22;35317;51.978;6.296;2023-01-19T09:46:31;3.20;99.90
49441;DHT22;35317;51.978;6.296;2023-01-19T09:51:44;3.30;99.90
49441;DHT22;35317;51.978;6.296;2023-01-19T09:56:48;3.40;99.90
49441;DHT22;35317;51.978;6.296;2023-01-19T10:18:45;3.50;99.90
49441;DHT22;35317;51.978;6.296;2023-01-19T10:23:57;3.50;99.90
49441;DHT22;35317;51.978;6.296;2023-01-19T10:29:23;3.60;99.90
49441;DHT22;35317;51.978;6.296;2023-01-19T10:34:28;3.60;99.90
49441;DHT22;35317;51.978;6.296;2023-01-19T10:39:28;3.70;99.90
49441;DHT22;35317;51.978;6.296;2023-01-19T10:44:34;3.70;99.90
49441;DHT22;35317;51.978;6.296;2023-01-19T10:49:40;3.90;99.90
49441;DHT22;35317;51.978;6.296;2023-01-19T10:54:44;4.20;99.90
49441;DHT22;35317;51.978;6.296;2023-01-19T10:59:48;4.40;99.90
49441;DHT22;35317;51.978;6.296;2023-01-19T11:04:52;4.60;99.90
49441;DHT22;35317;51.978;6.296;2023-01-19T11:15:33;4.90;99.90
49441;DHT22;35317;51.978;6.296;2023-01-19T11:20:47;4.90;99.90
49441;DHT22;35317;51.978;6.296;2023-01-19T11:25:51;4.90;99.90
49441;DHT22;35317;51.978;6.296;2023-01-19T11:31:01;4.80;99.90
49441;DHT22;35317;51.978;6.296;2023-01-19T11:36:06;4.80;99.90
49441;DHT22;35317;51.978;6.296;2023-01-19T11:41:28;4.80;99.90
49441;DHT22;35317;51.978;6.296;2023-01-19T11:46:32;4.70;99.90
49441;DHT22;35317;51.978;6.296;2023-01-19T11:51:50;4.80;99.90
49441;DHT22;35317;51.978;6.296;2023-01-19T11:56:58;4.80;99.90
49441;DHT22;35317;51.978;6.296;2023-01-19T12:02:01;4.80;99.90
49441;DHT22;35317;51.978;6.296;2023-01-19T12:07:08;4.90;99.90
49441;DHT22;35317;51.978;6.296;2023-01-19T12:12:22;4.90;99.90
49441;DHT22;35317;51.978;6.296;2023-01-19T12:17:29;5.00;99.90
49441;DHT22;35317;51.978;6.296;2023-01-19T12:22:42;5.10;99.90
49441;DHT22;35317;51.978;6.296;2023-01-19T12:27:49;5.20;99.90
49441;DHT22;35317;51.978;6.296;2023-01-19T12:32:50;5.30;99.90
49441;DHT22;35317;51.978;6.296;2023-01-19T12:37:51;5.50;99.90
49441;DHT22;35317;51.978;6.296;2023-01-19T12:43:02;5.60;99.90
49441;DHT22;35317;51.978;6.296;2023-01-19T12:48:04;5.70;99.90
49441;DHT22;35317;51.978;6.296;2023-01-19T12:53:23;5.60;99.90
49441;DHT22;35317;51.978;6.296;2023-01-19T12:58:26;5.60;99.90
49441;DHT22;35317;51.978;6.296;2023-01-19T13:08:54;5.50;99.90
49441;DHT22;35317;51.978;6.296;2023-01-19T13:24:06;5.80;99.90
49441;DHT22;35317;51.978;6.296;2023-01-19T13:29:36;5.80;99.90
49441;DHT22;35317;51.978;6.296;2023-01-19T13:34:43;5.90;99.90
49441;DHT22;35317;51.978;6.296;2023-01-19T13:39:46;6.00;99.90
49441;DHT22;35317;51.978;6.296;2023-01-19T13:44:52;6.00;99.90
49441;DHT22;35317;51.978;6.296;2023-01-19T13:49:56;6.20;99.90
49441;DHT22;35317;51.978;6.296;2023-01-19T13:54:58;6.40;99.90
49441;DHT22;35317;51.978;6.296;2023-01-19T14:05:13;6.60;99.90
49441;DHT22;35317;51.978;6.296;2023-01-19T14:10:15;6.30;99.90
49441;DHT22;35317;51.978;6.296;2023-01-19T14:15:16;6.10;99.90
49441;DHT22;35317;51.978;6.296;2023-01-19T14:20:27;6.00;99.90
49441;DHT22;35317;51.978;6.296;2023-01-19T14:25:35;5.80;99.90
49441;DHT22;35317;51.978;6.296;2023-01-19T14:30:38;5.80;99.90
49441;DHT22;35317;51.978;6.296;2023-01-19T14:35:39;5.70;99.90
49441;DHT22;35317;51.978;6.296;2023-01-19T14:40:40;5.50;99.90
49441;DHT22;35317;51.978;6.296;2023-01-19T14:45:45;5.40;99.90
49441;DHT22;35317;51.978;6.296;2023-01-19T14:50:47;5.30;99.90
49441;DHT22;35317;51.978;6.296;2023-01-19T14:56:10;5.10;99.90
49441;DHT22;35317;51.978;6.296;2023-01-19T15:01:11;5.00;99.90
49441;DHT22;35317;51.978;6.296;2023-01-19T15:06:16;4.90;99.90
49441;DHT22;35317;51.978;6.296;2023-01-19T15:16:31;4.70;99.90
49441;DHT22;35317;51.978;6.296;2023-01-19T15:21:33;4.60;99.90
49441;DHT22;35317;51.978;6.296;2023-01-19T15:26:36;4.60;99.90
49441;DHT22;35317;51.978;6.296;2023-01-19T15:31:37;4.50;99.90
49441;DHT22;35317;51.978;6.296;2023-01-19T15:36:38;4.40;99.90
49441;DHT22;35317;51.978;6.296;2023-01-19T15:41:39;4.30;99.90
49441;DHT22;35317;51.978;6.296;2023-01-19T15:46:40;4.20;99.90
49441;DHT22;35317;51.978;6.296;2023-01-19T15:51:41;4.10;99.90
49441;DHT22;35317;51.978;6.296;2023-01-19T15:56:41;3.90;99.90
49441;DHT22;35317;51.978;6.296;2023-01-19T16:01:42;3.80;99.90
49441;DHT22;35317;51.978;6.296;2023-01-19T16:06:43;3.80;99.90
49441;DHT22;35317;51.978;6.296;2023-01-19T16:11:44;3.60;99.90
49441;DHT22;35317;51.978;6.296;2023-01-19T16:16:45;3.50;99.90
49441;DHT22;35317;51.978;6.296;2023-01-19T16:21:46;3.50;99.90
49441;DHT22;35317;51.978;6.296;2023-01-19T16:26:47;3.40;99.90
49441;DHT22;35317;51.978;6.296;2023-01-19T16:31:47;3.40;99.90
49441;DHT22;35317;51.978;6.296;2023-01-19T16:36:48;3.30;99.90
49441;DHT22;35317;51.978;6.296;2023-01-19T16:41:49;3.30;99.90
49441;DHT22;35317;51.978;6.296;2023-01-19T16:46:50;3.30;99.90
49441;DHT22;35317;51.978;6.296;2023-01-19T16:51:51;3.20;99.90
49441;DHT22;35317;51.978;6.296;2023-01-19T16:56:55;3.20;99.90
49441;DHT22;35317;51.978;6.296;2023-01-19T17:01:56;3.30;99.90
49441;DHT22;35317;51.978;6.296;2023-01-19T17:06:57;3.20;99.90
49441;DHT22;35317;51.978;6.296;2023-01-19T17:11:58;3.10;99.90
49441;DHT22;35317;51.978;6.296;2023-01-19T17:16:59;3.10;99.90
49441;DHT22;35317;51.978;6.296;2023-01-19T17:22:00;3.00;99.90
49441;DHT22;35317;51.978;6.296;2023-01-19T17:27:01;2.90;99.90
49441;DHT22;35317;51.978;6.296;2023-01-19T17:32:01;2.80;99.90
49441;DHT22;35317;51.978;6.296;2023-01-19T17:37:02;2.70;99.90
49441;DHT22;35317;51.978;6.296;2023-01-19T17:42:04;2.60;99.90
49441;DHT22;35317;51.978;6.296;2023-01-19T17:47:04;2.50;99.90
49441;DHT22;35317;51.978;6.296;2023-01-19T17:52:05;2.50;99.90
49441;DHT22;35317;51.978;6.296;2023-01-19T17:57:06;2.40;99.90
49441;DHT22;35317;51.978;6.296;2023-01-19T18:02:08;2.40;99.90
49441;DHT22;35317;51.978;6.296;2023-01-19T18:07:09;2.40;99.90
49441;DHT22;35317;51.978;6.296;2023-01-19T18:12:10;2.40;99.90
49441;DHT22;35317;51.978;6.296;2023-01-19T18:17:10;2.30;99.90
49441;DHT22;35317;51.978;6.296;2023-01-19T18:22:11;2.30;99.90
49441;DHT22;35317;51.978;6.296;2023-01-19T18:27:12;2.20;99.90
49441;DHT22;35317;51.978;6.296;2023-01-19T18:32:13;2.10;99.90
49441;DHT22;35317;51.978;6.296;2023-01-19T18:37:13;2.00;99.90
49441;DHT22;35317;51.978;6.296;2023-01-19T18:42:14;1.90;99.90
49441;DHT22;35317;51.978;6.296;2023-01-19T18:47:15;1.90;99.90
49441;DHT22;35317;51.978;6.296;2023-01-19T18:52:16;1.90;99.90
49441;DHT22;35317;51.978;6.296;2023-01-19T18:57:16;1.90;99.90
49441;DHT22;35317;51.978;6.296;2023-01-19T19:02:17;1.90;99.90
49441;DHT22;35317;51.978;6.296;2023-01-19T19:07:18;1.90;99.90
49441;DHT22;35317;51.978;6.296;2023-01-19T19:12:19;1.80;99.90
49441;DHT22;35317;51.978;6.296;2023-01-19T19:17:20;1.80;99.90
49441;DHT22;35317;51.978;6.296;2023-01-19T19:22:21;1.80;99.90
49441;DHT22;35317;51.978;6.296;2023-01-19T19:27:21;1.90;99.90
49441;DHT22;35317;51.978;6.296;2023-01-19T19:32:22;2.00;99.90
49441;DHT22;35317;51.978;6.296;2023-01-19T19:37:24;2.10;99.90
49441;DHT22;35317;51.978;6.296;2023-01-19T19:42:25;2.20;99.90
49441;DHT22;35317;51.978;6.296;2023-01-19T19:47:28;2.20;99.90
49441;DHT22;35317;51.978;6.296;2023-01-19T19:52:30;2.30;99.90
49441;DHT22;35317;51.978;6.296;2023-01-19T19:57:31;2.30;99.90
49441;DHT22;35317;51.978;6.296;2023-01-19T20:02:32;2.40;99.90
49441;DHT22;35317;51.978;6.296;2023-01-19T20:07:33;2.50;99.90
49441;DHT22;35317;51.978;6.296;2023-01-19T20:12:34;2.50;99.90
49441;DHT22;35317;51.978;6.296;2023-01-19T20:17:35;2.50;99.90
49441;DHT22;35317;51.978;6.296;2023-01-19T20:22:36;2.60;99.90
49441;DHT22;35317;51.978;6.296;2023-01-19T20:27:37;2.60;99.90
49441;DHT22;35317;51.978;6.296;2023-01-19T20:32:39;2.60;99.90
49441;DHT22;35317;51.978;6.296;2023-01-19T20:37:40;2.60;99.90
49441;DHT22;35317;51.978;6.296;2023-01-19T20:42:40;2.60;99.90
49441;DHT22;35317;51.978;6.296;2023-01-19T20:47:42;2.50;99.90
49441;DHT22;35317;51.978;6.296;2023-01-19T20:52:43;2.50;99.90
49441;DHT22;35317;51.978;6.296;2023-01-19T20:57:44;2.60;99.90
49441;DHT22;35317;51.978;6.296;2023-01-19T21:02:45;2.60;99.90
49441;DHT22;35317;51.978;6.296;2023-01-19T21:07:45;2.50;99.90
49441;DHT22;35317;51.978;6.296;2023-01-19T21:12:46;2.50;99.90
49441;DHT22;35317;51.978;6.296;2023-01-19T21:17:47;2.50;99.90
49441;DHT22;35317;51.978;6.296;2023-01-19T21:22:48;2.50;99.90
49441;DHT22;35317;51.978;6.296;2023-01-19T21:27:50;2.50;99.90
49441;DHT22;35317;51.978;6.296;2023-01-19T21:32:51;2.40;99.90
49441;DHT22;35317;51.978;6.296;2023-01-19T21:37:52;2.40;99.90
49441;DHT22;35317;51.978;6.296;2023-01-19T21:42:52;2.40;99.90
49441;DHT22;35317;51.978;6.296;2023-01-19T21:47:53;2.40;99.90
49441;DHT22;35317;51.978;6.296;2023-01-19T21:52:54;2.40;99.90
49441;DHT22;35317;51.978;6.296;2023-01-19T21:57:55;2.30;99.90
49441;DHT22;35317;51.978;6.296;2023-01-19T22:02:56;2.20;99.90
49441;DHT22;35317;51.978;6.296;2023-01-19T22:07:57;2.10;99.90
49441;DHT22;35317;51.978;6.296;2023-01-19T22:12:58;2.10;99.90
49441;DHT22;35317;51.978;6.296;2023-01-19T22:17:59;2.10;99.90
49441;DHT22;35317;51.978;6.296;2023-01-19T22:22:59;2.00;99.90
49441;DHT22;35317;51.978;6.296;2023-01-19T22:28:00;2.00;99.90
49441;DHT22;35317;51.978;6.296;2023-01-19T22:33:01;1.90;99.90
49441;DHT22;35317;51.978;6.296;2023-01-19T22:38:01;1.90;99.90
49441;DHT22;35317;51.978;6.296;2023-01-19T22:43:02;1.80;99.90
49441;DHT22;35317;51.978;6.296;2023-01-19T22:48:03;1.80;99.90
49441;DHT22;35317;51.978;6.296;2023-01-19T22:53:04;1.80;99.90
49441;DHT22;35317;51.978;6.296;2023-01-19T22:58:05;1.80;99.90
49441;DHT22;35317;51.978;6.296;2023-01-19T23:03:06;1.90;99.90
49441;DHT22;35317;51.978;6.296;2023-01-19T23:08:06;1.90;99.90
49441;DHT22;35317;51.978;6.296;2023-01-19T23:13:07;2.00;99.90
49441;DHT22;35317;51.978;6.296;2023-01-19T23:18:08;2.10;99.90
49441;DHT22;35317;51.978;6.296;2023-01-19T23:23:09;2.10;99.90
49441;DHT22;35317;51.978;6.296;2023-01-19T23:28:09;2.20;99.90
49441;DHT22;35317;51.978;6.296;2023-01-19T23:33:10;2.20;99.90
49441;DHT22;35317;51.978;6.296;2023-01-19T23:38:11;2.20;99.90
49441;DHT22;35317;51.978;6.296;2023-01-19T23:43:12;2.10;99.90
49441;DHT22;35317;51.978;6.296;2023-01-19T23:48:12;2.20;99.90
49441;DHT22;35317;51.978;6.296;2023-01-19T23:53:13;2.10;99.90
49441;DHT22;35317;51.978;6.296;2023-01-19T23:58:29;2.10;99.90
